Time;durP1;ratioP1;P1;durP2;ratioP2;P2;SDS_P1;SDS_P2;PMS_P1;PMS_P2;Temp;Humidity;BMP_temperature;BMP_pressure;BME280_temperature;BME280_humidity;BME280_pressure;Samples;Min_cycle;Max_cycle;Signal;HPM_P1;HPM_P2
2021/12/25 00:01:55;;;;;;;9.13;8.23;;;11.70;97.30;;;;;;960242;147;27274;-83
2021/12/25 00:04:21;;;;;;;21.23;15.20;;;11.70;97.30;;;;;;957352;147;27317;-82
2021/12/25 00:06:48;;;;;;;9.53;8.33;;;11.80;97.30;;;;;;957389;146;27259;-82
2021/12/25 00:09:17;;;;;;;7.37;6.67;;;11.80;97.20;;;;;;963237;146;27291;-82
2021/12/25 00:11:43;;;;;;;10.60;8.03;;;11.80;97.10;;;;;;961661;147;27305;-82
2021/12/25 00:14:12;;;;;;;11.33;10.13;;;11.80;96.90;;;;;;962184;148;27247;-82
2021/12/25 00:16:37;;;;;;;6.97;6.27;;;11.80;96.80;;;;;;962831;146;27271;-82
2021/12/25 00:19:06;;;;;;;8.43;6.27;;;11.70;96.70;;;;;;965554;146;27445;-82
2021/12/25 00:21:32;;;;;;;14.63;10.43;;;11.70;96.60;;;;;;966016;147;27261;-82
2021/12/25 00:23:59;;;;;;;20.20;13.63;;;11.70;96.60;;;;;;956326;146;27393;-82
2021/12/25 00:26:42;;;;;;;18.70;15.10;;;11.70;96.60;;;;;;965419;146;27274;-84
2021/12/25 00:29:01;;;;;;;14.07;10.57;;;11.60;96.60;;;;;;958171;146;27290;-84
2021/12/25 00:36:15;;;;;;;8.57;6.57;;;11.60;96.60;;;;;;964998;149;27400;-84
2021/12/25 00:38:44;;;;;;;8.37;6.93;;;11.60;96.70;;;;;;968623;146;27349;-84
2021/12/25 00:41:08;;;;;;;7.43;6.67;;;11.50;96.70;;;;;;960227;147;27304;-84
2021/12/25 00:43:35;;;;;;;6.60;6.00;;;11.50;96.70;;;;;;959971;148;27303;-84
2021/12/25 00:46:01;;;;;;;6.50;5.90;;;11.50;96.70;;;;;;964050;147;27365;-84
2021/12/25 00:48:28;;;;;;;7.27;6.33;;;11.50;96.60;;;;;;965045;148;27290;-84
2021/12/25 00:50:54;;;;;;;6.27;5.63;;;11.40;96.60;;;;;;965342;146;27361;-84
2021/12/25 00:53:21;;;;;;;5.77;5.27;;;11.40;96.50;;;;;;961889;148;27255;-84
2021/12/25 00:55:48;;;;;;;12.17;10.87;;;11.40;96.60;;;;;;966039;147;27384;-84
2021/12/25 00:58:14;;;;;;;8.60;7.70;;;11.30;96.60;;;;;;964342;149;27391;-84
2021/12/25 01:00:41;;;;;;;8.63;7.73;;;11.30;96.60;;;;;;956787;146;27392;-84
2021/12/25 01:03:07;;;;;;;9.47;8.57;;;11.20;96.70;;;;;;964868;149;27307;-84
2021/12/25 01:05:34;;;;;;;8.10;7.33;;;11.20;96.70;;;;;;958484;148;27301;-84
2021/12/25 01:08:01;;;;;;;7.90;7.17;;;11.20;96.80;;;;;;954037;149;27355;-84
2021/12/25 01:10:27;;;;;;;9.60;8.60;;;11.10;96.80;;;;;;965346;146;27303;-83
2021/12/25 01:13:15;;;;;;;20.53;18.33;;;11.10;96.80;;;;;;964352;148;27285;-84
2021/12/25 01:31:50;;;;;;;6.93;6.33;;;10.80;96.90;;;;;;960473;146;27424;-83
2021/12/25 01:36:54;;;;;;;7.23;6.53;;;10.70;97.10;;;;;;964816;148;27330;-83
2021/12/25 01:39:13;;;;;;;6.87;6.27;;;10.70;97.20;;;;;;962260;146;27387;-83
2021/12/25 01:49:36;;;;;;;7.80;7.00;;;10.60;97.30;;;;;;963194;149;27384;-83
2021/12/25 01:52:05;;;;;;;7.57;6.93;;;10.50;97.20;;;;;;964388;148;27303;-84
2021/12/25 01:54:34;;;;;;;7.23;6.60;;;10.50;97.30;;;;;;963312;147;27305;-83
2021/12/25 01:57:01;;;;;;;7.77;6.97;;;10.50;97.40;;;;;;963558;147;27287;-82
2021/12/25 01:59:27;;;;;;;11.93;10.67;;;10.40;97.40;;;;;;956859;146;27381;-82
2021/12/25 02:01:54;;;;;;;8.17;7.37;;;10.40;97.60;;;;;;958938;146;27772;-82
2021/12/25 02:04:20;;;;;;;7.30;6.53;;;10.40;97.60;;;;;;962188;149;27379;-82
2021/12/25 02:06:47;;;;;;;7.17;6.47;;;10.40;97.70;;;;;;961168;149;27350;-83
2021/12/25 02:09:14;;;;;;;7.80;7.03;;;10.40;97.70;;;;;;963577;147;27360;-82
2021/12/25 02:11:40;;;;;;;7.67;6.97;;;10.40;97.80;;;;;;965372;147;27666;-83
2021/12/25 02:14:07;;;;;;;8.17;7.43;;;10.40;97.90;;;;;;962411;148;27283;-82
2021/12/25 02:16:49;;;;;;;7.33;6.63;;;10.40;98.30;;;;;;963288;147;27347;-82
2021/12/25 02:19:06;;;;;;;7.97;6.83;;;10.40;98.00;;;;;;959263;149;27326;-83
2021/12/25 02:21:34;;;;;;;8.37;7.57;;;10.40;98.00;;;;;;967240;147;27298;-82
2021/12/25 02:23:53;;;;;;;9.17;8.27;;;10.40;98.10;;;;;;960552;148;27355;-83
2021/12/25 02:26:21;;;;;;;9.30;8.37;;;10.40;98.10;;;;;;959166;147;27350;-82
2021/12/25 02:28:46;;;;;;;8.80;7.93;;;10.40;98.20;;;;;;960173;147;27304;-83
2021/12/25 02:31:16;;;;;;;14.43;12.93;;;10.40;98.30;;;;;;964247;147;27375;-82
2021/12/25 02:33:42;;;;;;;14.63;13.10;;;10.40;98.40;;;;;;962863;148;27324;-83
2021/12/25 02:36:09;;;;;;;10.67;9.67;;;10.40;98.50;;;;;;961645;147;27292;-82
2021/12/25 02:38:35;;;;;;;9.40;8.50;;;10.40;98.50;;;;;;961972;147;27274;-82
2021/12/25 02:41:02;;;;;;;10.40;9.40;;;10.40;98.60;;;;;;959485;148;27331;-82
2021/12/25 02:43:31;;;;;;;9.47;8.50;;;10.40;98.70;;;;;;963966;145;27252;-82
2021/12/25 02:46:03;;;;;;;9.20;8.30;;;10.50;98.80;;;;;;960352;146;27392;-82
2021/12/25 02:48:24;;;;;;;9.73;8.83;;;10.50;98.80;;;;;;964067;146;27284;-82
2021/12/25 02:50:51;;;;;;;9.20;8.33;;;10.50;98.80;;;;;;963667;148;27318;-82
2021/12/25 02:53:17;;;;;;;10.00;9.00;;;10.50;98.80;;;;;;962434;146;27751;-83
2021/12/25 02:55:44;;;;;;;9.80;8.80;;;10.60;98.90;;;;;;962127;146;27286;-83
2021/12/25 02:58:10;;;;;;;8.53;7.67;;;10.60;98.90;;;;;;963630;146;27251;-82
2021/12/25 03:00:43;;;;;;;7.63;6.93;;;10.60;98.80;;;;;;962775;146;27335;-83
2021/12/25 03:03:10;;;;;;;7.93;7.20;;;10.70;98.80;;;;;;962353;148;27398;-83
2021/12/25 03:05:36;;;;;;;7.63;6.93;;;10.70;98.70;;;;;;966926;146;27379;-83
2021/12/25 03:08:03;;;;;;;7.80;7.07;;;10.70;98.60;;;;;;966775;146;27255;-83
2021/12/25 03:10:32;;;;;;;7.20;6.60;;;10.70;98.60;;;;;;963972;145;27326;-83
2021/12/25 03:13:17;;;;;;;6.97;6.37;;;10.70;98.60;;;;;;961251;145;27388;-83
2021/12/25 03:15:40;;;;;;;8.07;7.27;;;10.70;98.60;;;;;;953219;148;27299;-83
2021/12/25 03:17:55;;;;;;;7.67;6.97;;;10.70;98.60;;;;;;959867;146;27453;-83
2021/12/25 03:20:21;;;;;;;8.37;7.57;;;10.70;98.50;;;;;;966081;146;27364;-83
2021/12/25 03:22:48;;;;;;;7.80;7.10;;;10.70;98.50;;;;;;962318;146;27303;-83
2021/12/25 03:25:15;;;;;;;7.53;6.83;;;10.70;98.50;;;;;;963506;145;27369;-83
2021/12/25 03:27:41;;;;;;;7.73;6.93;;;10.70;98.50;;;;;;959506;146;27431;-83
2021/12/25 03:30:08;;;;;;;7.93;7.23;;;10.70;98.50;;;;;;965194;145;27338;-83
2021/12/25 03:32:34;;;;;;;7.73;7.00;;;10.70;98.60;;;;;;960373;146;27244;-83
2021/12/25 03:35:01;;;;;;;7.77;7.07;;;10.70;98.60;;;;;;960343;146;27317;-83
2021/12/25 03:37:28;;;;;;;8.10;7.30;;;10.70;99.00;;;;;;970195;145;27342;-82
2021/12/25 03:39:54;;;;;;;9.00;8.10;;;10.70;98.70;;;;;;964011;146;27470;-83
2021/12/25 03:42:23;;;;;;;8.13;7.40;;;10.70;98.60;;;;;;961987;147;27287;-83
2021/12/25 03:44:50;;;;;;;7.47;6.80;;;10.70;98.50;;;;;;975179;145;27419;-83
2021/12/25 03:47:29;;;;;;;7.97;7.27;;;10.70;98.50;;;;;;963961;145;27278;-83
2021/12/25 03:58:11;;;;;;;8.07;7.27;;;10.70;98.40;;;;;;972872;145;27346;-85
2021/12/25 04:00:36;;;;;;;7.70;7.00;;;10.60;98.40;;;;;;964238;146;27303;-85
2021/12/25 04:03:07;;;;;;;8.40;7.60;;;10.60;98.50;;;;;;967683;146;27413;-85
2021/12/25 04:05:32;;;;;;;7.97;7.27;;;10.60;98.60;;;;;;969545;145;27426;-85
2021/12/25 04:08:05;;;;;;;8.13;7.33;;;10.60;98.70;;;;;;971636;145;27287;-85
2021/12/25 04:10:28;;;;;;;8.43;7.63;;;10.60;98.70;;;;;;966442;146;27804;-86
2021/12/25 04:12:54;;;;;;;8.67;7.77;;;10.60;98.70;;;;;;968344;145;27302;-85
2021/12/25 04:15:21;;;;;;;7.40;6.70;;;10.60;98.80;;;;;;970363;145;27417;-85
2021/12/25 04:17:47;;;;;;;8.03;7.23;;;10.60;98.80;;;;;;973541;146;27237;-85
2021/12/25 04:20:14;;;;;;;7.90;7.20;;;10.60;98.90;;;;;;976506;146;27366;-85
2021/12/25 04:22:52;;;;;;;6.17;5.67;;;10.60;98.90;;;;;;963791;146;27380;-85
2021/12/25 04:25:10;;;;;;;7.00;6.40;;;10.60;98.90;;;;;;970956;146;27266;-85
2021/12/25 04:27:38;;;;;;;7.40;6.63;;;10.60;98.80;;;;;;966588;148;27290;-84
2021/12/25 04:30:16;;;;;;;6.63;6.03;;;10.70;98.70;;;;;;963781;145;27407;-85
2021/12/25 04:33:14;;;;;;;6.03;5.53;;;10.60;98.70;;;;;;965706;146;27334;-85
2021/12/25 05:02:16;;;;;;;6.77;6.17;;;10.50;98.80;;;;;;956804;146;27975;-85
2021/12/25 05:04:39;;;;;;;7.07;6.47;;;10.50;98.70;;;;;;956094;146;27378;-85
2021/12/25 05:07:00;;;;;;;6.90;6.30;;;10.50;98.80;;;;;;960275;147;27410;-84
2021/12/25 05:09:26;;;;;;;6.43;5.80;;;10.50;99.00;;;;;;963410;146;27311;-84
2021/12/25 05:11:53;;;;;;;6.93;6.23;;;10.50;99.00;;;;;;963090;146;27243;-84
2021/12/25 05:14:22;;;;;;;6.67;6.07;;;10.50;99.10;;;;;;962259;146;27358;-85
2021/12/25 05:16:49;;;;;;;6.43;5.83;;;10.50;99.10;;;;;;959423;145;27274;-85
2021/12/25 05:19:16;;;;;;;6.23;5.63;;;10.50;99.00;;;;;;969536;145;27798;-84
2021/12/25 05:21:42;;;;;;;5.87;5.37;;;10.50;98.80;;;;;;958008;146;27291;-84
2021/12/25 05:24:09;;;;;;;6.30;5.70;;;10.50;98.50;;;;;;957556;147;27384;-85
2021/12/25 05:26:35;;;;;;;5.57;5.00;;;10.50;98.20;;;;;;963643;145;27367;-84
2021/12/25 05:29:02;;;;;;;6.20;5.60;;;10.40;98.00;;;;;;960082;146;27312;-84
2021/12/25 05:31:29;;;;;;;5.97;5.37;;;10.40;97.80;;;;;;953948;145;27386;-84
2021/12/25 05:33:55;;;;;;;5.87;5.00;;;10.30;97.70;;;;;;963544;146;27402;-84
2021/12/25 05:36:22;;;;;;;6.20;5.60;;;10.30;97.50;;;;;;959359;146;27265;-84
2021/12/25 05:38:48;;;;;;;6.30;5.23;;;10.20;97.50;;;;;;955232;147;27288;-84
2021/12/25 05:41:15;;;;;;;6.20;5.60;;;10.10;97.50;;;;;;962772;145;27380;-84
2021/12/25 05:43:41;;;;;;;5.77;5.17;;;10.10;97.40;;;;;;980743;146;27324;-84
2021/12/25 05:46:08;;;;;;;5.67;5.00;;;10.00;97.30;;;;;;957339;145;27304;-84
2021/12/25 05:48:35;;;;;;;5.83;5.33;;;9.90;97.30;;;;;;961082;146;27269;-85
2021/12/25 05:51:04;;;;;;;5.07;4.67;;;9.90;97.20;;;;;;963974;146;27318;-84
2021/12/25 05:53:30;;;;;;;5.10;4.70;;;9.80;97.30;;;;;;961316;146;27310;-84
2021/12/25 05:55:57;;;;;;;5.87;4.97;;;9.70;97.30;;;;;;957400;147;27367;-84
2021/12/25 05:58:24;;;;;;;5.23;4.83;;;9.60;97.40;;;;;;961815;148;27332;-84
2021/12/25 06:00:50;;;;;;;5.10;4.70;;;9.60;97.50;;;;;;962522;146;27261;-84
2021/12/25 06:03:17;;;;;;;5.03;4.60;;;9.50;97.60;;;;;;958723;147;27369;-84
2021/12/25 06:05:43;;;;;;;5.20;4.40;;;9.50;97.60;;;;;;959006;148;27638;-84
2021/12/25 06:08:10;;;;;;;5.97;4.90;;;9.50;97.70;;;;;;959904;146;27370;-83
2021/12/25 06:10:37;;;;;;;5.73;5.23;;;9.40;97.70;;;;;;961617;149;27278;-84
2021/12/25 06:13:03;;;;;;;6.07;5.47;;;9.40;97.70;;;;;;964078;146;27387;-84
2021/12/25 06:15:30;;;;;;;5.47;5.07;;;9.30;97.60;;;;;;959764;146;27330;-83
2021/12/25 06:17:56;;;;;;;5.27;4.80;;;9.30;97.60;;;;;;967465;146;27412;-84
2021/12/25 06:20:23;;;;;;;5.67;5.17;;;9.30;97.60;;;;;;959880;146;27305;-85
2021/12/25 06:22:50;;;;;;;5.97;5.47;;;9.20;97.60;;;;;;958770;149;27391;-84
2021/12/25 06:25:16;;;;;;;5.87;5.37;;;9.20;97.50;;;;;;959397;146;27299;-85
2021/12/25 06:27:43;;;;;;;5.43;4.93;;;9.20;97.40;;;;;;964951;149;27335;-85
2021/12/25 06:30:09;;;;;;;5.57;5.07;;;9.10;97.40;;;;;;961952;146;27400;-84
2021/12/25 06:32:36;;;;;;;4.80;4.40;;;9.10;97.40;;;;;;962023;147;27286;-85
2021/12/25 06:35:03;;;;;;;5.13;4.67;;;9.00;97.40;;;;;;959423;146;27803;-85
2021/12/25 06:37:30;;;;;;;5.50;5.00;;;9.00;97.50;;;;;;955867;146;27427;-85
2021/12/25 06:39:56;;;;;;;5.63;5.13;;;8.90;97.60;;;;;;962174;144;27326;-85
2021/12/25 06:42:25;;;;;;;5.70;5.20;;;8.90;97.60;;;;;;956992;147;27863;-84
2021/12/25 06:44:51;;;;;;;5.67;5.17;;;8.80;97.60;;;;;;961259;146;27355;-84
2021/12/25 06:47:18;;;;;;;5.37;4.87;;;8.80;97.60;;;;;;952492;147;27393;-84
2021/12/25 06:49:45;;;;;;;5.57;4.97;;;8.80;97.60;;;;;;961177;146;27397;-84
2021/12/25 06:52:11;;;;;;;5.30;4.80;;;8.70;97.60;;;;;;964393;146;27758;-84
2021/12/25 06:54:38;;;;;;;4.90;4.50;;;8.70;97.60;;;;;;965912;146;27284;-85
2021/12/25 06:57:04;;;;;;;4.70;4.30;;;8.60;97.70;;;;;;949060;146;27329;-85
2021/12/25 06:59:31;;;;;;;5.47;5.00;;;8.60;97.80;;;;;;960729;148;27312;-85
2021/12/25 07:01:57;;;;;;;5.97;4.97;;;8.60;97.80;;;;;;960550;146;27303;-84
2021/12/25 07:04:24;;;;;;;5.17;4.77;;;8.60;97.90;;;;;;975019;146;27229;-84
2021/12/25 07:06:51;;;;;;;5.50;4.90;;;8.50;97.90;;;;;;966475;146;27277;-85
2021/12/25 07:09:17;;;;;;;5.77;5.27;;;8.50;98.00;;;;;;961574;146;27292;-84
2021/12/25 07:11:44;;;;;;;4.57;4.13;;;8.50;98.10;;;;;;948946;149;27300;-84
2021/12/25 07:14:11;;;;;;;4.87;4.20;;;8.50;98.10;;;;;;973553;146;27296;-84
2021/12/25 07:16:37;;;;;;;5.10;3.90;;;8.40;98.10;;;;;;963007;146;27359;-84
2021/12/25 07:19:04;;;;;;;4.30;3.90;;;8.40;98.10;;;;;;962548;146;27351;-84
2021/12/25 07:21:30;;;;;;;3.60;3.30;;;8.40;98.00;;;;;;962497;148;27318;-84
2021/12/25 07:23:57;;;;;;;3.50;3.20;;;8.40;98.00;;;;;;964781;146;27343;-83
2021/12/25 07:26:23;;;;;;;3.27;3.03;;;8.40;98.00;;;;;;962907;146;27289;-84
2021/12/25 07:28:50;;;;;;;3.37;2.77;;;8.40;98.10;;;;;;970663;146;27353;-82
2021/12/25 07:31:18;;;;;;;7.03;2.60;;;8.40;98.00;;;;;;969949;146;27257;-84
2021/12/25 07:33:43;;;;;;;2.60;2.40;;;8.30;98.00;;;;;;960881;146;27272;-85
2021/12/25 07:36:10;;;;;;;2.40;2.20;;;8.30;98.00;;;;;;954544;146;27275;-84
2021/12/25 07:38:36;;;;;;;2.07;1.97;;;8.30;97.90;;;;;;962059;146;27318;-84
2021/12/25 07:41:03;;;;;;;3.73;2.50;;;8.30;97.90;;;;;;962324;146;27351;-84
2021/12/25 07:43:29;;;;;;;2.40;2.20;;;8.30;97.80;;;;;;965702;146;27325;-85
2021/12/25 07:45:56;;;;;;;2.33;2.10;;;8.20;97.70;;;;;;963992;146;27255;-84
2021/12/25 07:48:25;;;;;;;2.10;2.00;;;8.20;97.70;;;;;;978200;146;27719;-84
2021/12/25 07:50:49;;;;;;;1.90;1.80;;;8.20;97.70;;;;;;956262;146;27322;-84
2021/12/25 07:53:18;;;;;;;2.20;2.10;;;8.10;97.70;;;;;;954433;146;27260;-84
2021/12/25 07:55:47;;;;;;;2.43;2.00;;;8.10;97.80;;;;;;960476;145;27331;-84
2021/12/25 07:58:11;;;;;;;2.53;2.33;;;8.10;97.80;;;;;;961525;146;27313;-84
2021/12/25 08:00:41;;;;;;;2.50;2.30;;;8.00;98.10;;;;;;969233;145;27307;-84
2021/12/25 08:03:07;;;;;;;2.80;2.60;;;8.00;98.20;;;;;;961667;146;27277;-85
2021/12/25 08:05:34;;;;;;;2.37;2.27;;;8.00;98.20;;;;;;958900;146;27360;-84
2021/12/25 08:08:01;;;;;;;2.23;2.13;;;8.00;98.10;;;;;;960198;146;27315;-84
2021/12/25 08:10:27;;;;;;;2.30;2.10;;;8.00;98.10;;;;;;960847;146;27745;-84
2021/12/25 08:12:54;;;;;;;1.83;1.73;;;8.00;98.10;;;;;;960053;146;27312;-84
2021/12/25 08:15:20;;;;;;;2.33;2.13;;;8.00;98.10;;;;;;960583;145;27250;-84
2021/12/25 08:17:47;;;;;;;2.33;2.13;;;7.90;98.10;;;;;;962391;146;27323;-83
2021/12/25 08:20:14;;;;;;;2.27;2.00;;;7.90;98.10;;;;;;957525;146;27319;-84
2021/12/25 08:22:40;;;;;;;1.90;1.80;;;7.90;98.10;;;;;;962305;146;27348;-84
2021/12/25 08:25:07;;;;;;;2.40;2.20;;;7.90;98.10;;;;;;959776;146;27299;-85
2021/12/25 08:27:33;;;;;;;2.20;2.00;;;7.90;98.10;;;;;;957733;146;27329;-85
2021/12/25 08:30:00;;;;;;;1.73;1.63;;;7.90;98.10;;;;;;959689;146;27351;-84
2021/12/25 08:32:26;;;;;;;2.10;2.00;;;7.80;98.10;;;;;;959677;146;27340;-85
2021/12/25 08:34:53;;;;;;;1.90;1.80;;;7.80;98.00;;;;;;957314;146;27242;-84
2021/12/25 08:37:23;;;;;;;2.20;2.10;;;7.80;97.90;;;;;;960368;146;27639;-83
2021/12/25 08:39:46;;;;;;;2.07;1.97;;;7.80;97.90;;;;;;958532;146;27271;-84
2021/12/25 08:42:13;;;;;;;2.00;1.90;;;7.80;97.80;;;;;;959004;145;27360;-85
2021/12/25 08:45:05;;;;;;;1.87;1.77;;;7.70;97.70;;;;;;958391;146;27290;-84
2021/12/25 08:47:21;;;;;;;1.77;1.67;;;7.70;97.60;;;;;;958015;146;27298;-84
2021/12/25 08:49:47;;;;;;;2.13;1.93;;;7.70;97.50;;;;;;963406;145;27277;-84
2021/12/25 08:52:14;;;;;;;1.77;1.67;;;7.60;97.50;;;;;;969501;146;28310;-84
2021/12/25 08:54:40;;;;;;;2.13;2.00;;;7.50;97.50;;;;;;964131;145;27406;-84
2021/12/25 08:57:07;;;;;;;1.83;1.73;;;7.50;97.60;;;;;;968987;145;27273;-84
2021/12/25 08:59:34;;;;;;;2.20;2.10;;;7.50;97.60;;;;;;966433;145;27393;-84
2021/12/25 09:02:03;;;;;;;2.17;2.03;;;7.40;97.60;;;;;;964666;145;27333;-84
2021/12/25 09:04:27;;;;;;;1.80;1.70;;;7.40;97.60;;;;;;962017;145;27337;-84
2021/12/25 09:06:53;;;;;;;2.50;2.30;;;7.40;97.70;;;;;;964048;145;27353;-84
2021/12/25 09:09:20;;;;;;;2.10;2.00;;;7.30;97.70;;;;;;965972;145;27412;-84
2021/12/25 09:11:47;;;;;;;2.07;1.97;;;7.30;97.70;;;;;;966299;145;27333;-84
2021/12/25 09:14:13;;;;;;;2.40;2.20;;;7.30;97.70;;;;;;966283;145;27445;-84
2021/12/25 09:16:40;;;;;;;1.90;1.80;;;7.30;97.70;;;;;;966700;145;28066;-85
2021/12/25 09:19:06;;;;;;;2.20;2.10;;;7.30;97.70;;;;;;964323;145;27429;-84
2021/12/25 09:21:33;;;;;;;2.50;2.30;;;7.20;97.70;;;;;;966878;145;27326;-85
2021/12/25 09:24:00;;;;;;;2.40;2.20;;;7.20;97.50;;;;;;964351;145;27858;-84
2021/12/25 09:26:26;;;;;;;2.27;2.07;;;7.20;97.50;;;;;;971283;145;27313;-84
2021/12/25 09:28:55;;;;;;;2.30;2.20;;;7.20;97.50;;;;;;961386;145;27403;-82
2021/12/25 09:31:25;;;;;;;2.30;2.10;;;7.10;97.50;;;;;;965643;145;27402;-84
2021/12/25 09:33:52;;;;;;;2.30;2.20;;;7.10;97.60;;;;;;967667;145;27388;-83
2021/12/25 09:36:18;;;;;;;2.20;2.10;;;7.10;97.70;;;;;;966170;142;27373;-83
2021/12/25 09:38:45;;;;;;;1.97;1.83;;;7.00;97.80;;;;;;968194;145;27323;-85
2021/12/25 09:41:11;;;;;;;1.77;1.67;;;7.00;97.80;;;;;;965266;145;27277;-84
2021/12/25 09:43:39;;;;;;;2.23;2.10;;;7.00;97.60;;;;;;969815;145;27841;-85
2021/12/25 09:46:04;;;;;;;1.87;1.77;;;7.00;97.80;;;;;;968242;145;27301;-82
2021/12/25 09:48:31;;;;;;;2.03;1.93;;;7.00;97.90;;;;;;951291;146;27345;-84
2021/12/25 09:50:58;;;;;;;2.27;2.17;;;7.00;97.90;;;;;;948328;147;27308;-85
2021/12/25 09:53:25;;;;;;;2.03;1.93;;;7.00;97.80;;;;;;944170;147;28333;-84
2021/12/25 09:55:53;;;;;;;1.70;1.60;;;7.00;97.70;;;;;;952141;147;27340;-82
2021/12/25 09:58:20;;;;;;;2.50;2.30;;;7.00;97.70;;;;;;948972;147;27351;-84
2021/12/25 10:00:47;;;;;;;2.30;2.10;;;6.90;97.70;;;;;;947117;147;27299;-83
2021/12/25 10:03:13;;;;;;;2.57;2.37;;;6.90;97.80;;;;;;950756;147;27320;-85
2021/12/25 10:05:41;;;;;;;2.97;2.27;;;6.90;97.80;;;;;;945336;147;27343;-84
2021/12/25 10:08:15;;;;;;;2.20;2.00;;;6.90;97.90;;;;;;949907;147;27245;-84
2021/12/25 10:10:42;;;;;;;2.00;1.90;;;6.90;98.00;;;;;;950702;147;28258;-84
2021/12/25 10:13:27;;;;;;;2.23;2.03;;;6.90;98.00;;;;;;949193;147;27296;-84
2021/12/25 10:15:53;;;;;;;1.83;1.73;;;6.90;97.90;;;;;;948316;147;27371;-84
2021/12/25 10:18:31;;;;;;;2.43;2.23;;;6.90;97.80;;;;;;946483;147;27410;-84
2021/12/25 10:20:58;;;;;;;2.70;2.50;;;6.90;97.70;;;;;;939381;147;27375;-83
2021/12/25 10:23:28;;;;;;;3.00;2.70;;;6.90;97.70;;;;;;942971;147;27353;-83
2021/12/25 10:25:51;;;;;;;3.77;3.20;;;6.90;97.80;;;;;;948805;147;27300;-84
2021/12/25 10:28:17;;;;;;;2.80;2.60;;;6.90;97.70;;;;;;948606;147;27345;-83
2021/12/25 10:30:44;;;;;;;2.80;2.33;;;6.90;97.70;;;;;;948443;145;27999;-84
2021/12/25 10:33:28;;;;;;;5.80;5.27;;;6.80;97.80;;;;;;944691;147;27313;-84
2021/12/25 10:35:55;;;;;;;5.13;4.67;;;6.80;97.90;;;;;;948994;147;27217;-84
2021/12/25 10:38:24;;;;;;;3.87;3.57;;;6.80;97.80;;;;;;948663;147;27446;-84
2021/12/25 10:40:48;;;;;;;3.50;3.20;;;6.80;97.90;;;;;;955203;147;27449;-84
2021/12/25 10:43:21;;;;;;;2.33;2.20;;;6.80;98.00;;;;;;946706;147;27277;-84
2021/12/25 10:45:59;;;;;;;2.67;2.47;;;6.80;98.00;;;;;;949133;149;27348;-84
2021/12/25 10:48:26;;;;;;;2.70;2.50;;;6.80;97.80;;;;;;956271;147;27269;-84
2021/12/25 10:50:52;;;;;;;2.07;1.97;;;6.80;97.80;;;;;;949203;147;27389;-84
2021/12/25 10:53:28;;;;;;;2.20;2.10;;;6.80;97.80;;;;;;948516;149;27385;-83
2021/12/25 10:55:54;;;;;;;2.50;2.30;;;6.80;97.90;;;;;;942734;147;27326;-84
2021/12/25 10:58:21;;;;;;;2.90;2.60;;;6.80;97.80;;;;;;947041;147;27392;-83
2021/12/25 11:00:50;;;;;;;3.03;2.83;;;6.80;97.80;;;;;;957414;147;27288;-84
2021/12/25 11:03:17;;;;;;;4.07;3.77;;;6.80;97.70;;;;;;943962;150;27432;-84
2021/12/25 11:05:43;;;;;;;2.97;2.77;;;6.80;97.70;;;;;;950530;147;27379;-85
2021/12/25 11:08:10;;;;;;;2.87;2.67;;;6.70;97.70;;;;;;949126;147;27959;-84
2021/12/25 11:10:42;;;;;;;15.10;13.97;;;6.70;97.70;;;;;;950634;147;27419;-84
2021/12/25 11:13:30;;;;;;;4.60;4.30;;;6.70;97.80;;;;;;944373;150;27300;-83
2021/12/25 11:16:06;;;;;;;3.13;2.93;;;6.70;97.80;;;;;;946999;147;27304;-84
2021/12/25 11:18:29;;;;;;;2.97;2.77;;;6.70;97.60;;;;;;947681;147;27377;-84
2021/12/25 11:20:55;;;;;;;3.63;3.33;;;6.70;97.40;;;;;;944181;147;27338;-84
2021/12/25 11:23:22;;;;;;;2.97;2.77;;;6.70;97.30;;;;;;946583;147;27398;-84
2021/12/25 11:25:48;;;;;;;3.43;3.13;;;6.70;97.20;;;;;;947290;147;27282;-84
2021/12/25 11:28:18;;;;;;;2.00;1.90;;;6.60;97.50;;;;;;953149;147;27305;-83
2021/12/25 11:30:42;;;;;;;11.13;6.20;;;6.60;97.20;;;;;;946081;147;27465;-84
2021/12/25 11:33:08;;;;;;;11.97;6.40;;;6.60;97.20;;;;;;946405;149;27375;-84
2021/12/25 11:35:35;;;;;;;5.70;4.03;;;6.60;97.40;;;;;;953938;147;27326;-85
2021/12/25 11:38:01;;;;;;;3.40;2.80;;;6.60;97.30;;;;;;959098;147;27324;-84
2021/12/25 11:40:28;;;;;;;4.10;3.70;;;6.50;97.10;;;;;;953619;150;27385;-84
2021/12/25 11:42:57;;;;;;;6.07;4.00;;;6.50;96.90;;;;;;943105;147;27372;-84
2021/12/25 11:45:22;;;;;;;3.30;3.00;;;6.50;96.90;;;;;;940026;150;27301;-84
2021/12/25 11:47:48;;;;;;;3.00;2.80;;;6.40;96.90;;;;;;951652;150;27364;-84
2021/12/25 11:50:17;;;;;;;3.33;2.53;;;6.40;97.00;;;;;;943788;149;27360;-85
2021/12/25 11:52:55;;;;;;;3.40;3.10;;;6.40;97.00;;;;;;940351;152;27816;-83
2021/12/25 11:55:48;;;;;;;5.40;3.70;;;6.30;96.90;;;;;;948307;147;27634;-84
2021/12/25 11:58:05;;;;;;;3.13;2.83;;;6.30;97.00;;;;;;956217;147;27556;-85
2021/12/25 12:00:33;;;;;;;3.07;2.53;;;6.30;97.00;;;;;;955411;147;27393;-84
2021/12/25 12:02:59;;;;;;;4.03;3.27;;;6.30;97.10;;;;;;940682;150;27479;-84
2021/12/25 12:05:29;;;;;;;3.40;2.80;;;6.30;97.10;;;;;;948109;150;27296;-84
2021/12/25 12:07:58;;;;;;;2.50;2.30;;;6.20;97.10;;;;;;960031;147;27307;-84
2021/12/25 12:10:45;;;;;;;2.37;2.17;;;6.20;97.00;;;;;;957290;147;27428;-85
2021/12/25 12:13:17;;;;;;;2.40;2.20;;;6.20;97.00;;;;;;938955;150;27401;-84
2021/12/25 12:15:47;;;;;;;2.17;2.07;;;6.20;97.00;;;;;;934859;150;27299;-84
2021/12/25 12:18:29;;;;;;;2.00;1.90;;;6.10;97.00;;;;;;943727;147;27351;-84
2021/12/25 12:21:04;;;;;;;2.43;2.33;;;6.10;97.10;;;;;;950725;147;27320;-83
2021/12/25 12:26:13;;;;;;;2.53;2.30;;;6.10;97.20;;;;;;941522;150;27280;-83
2021/12/25 12:28:55;;;;;;;2.30;2.20;;;6.10;97.00;;;;;;956686;147;27257;-84
2021/12/25 12:31:48;;;;;;;2.30;2.20;;;6.10;97.00;;;;;;948613;148;27375;-84
2021/12/25 12:34:30;;;;;;;2.67;2.47;;;6.00;97.10;;;;;;945661;151;27364;-84
2021/12/25 12:37:15;;;;;;;2.23;2.03;;;6.00;97.10;;;;;;964290;146;27403;-84
2021/12/25 12:39:58;;;;;;;2.40;2.30;;;6.00;97.20;;;;;;965360;146;27316;-83
2021/12/25 12:42:23;;;;;;;2.37;2.17;;;6.00;97.20;;;;;;976795;145;27346;-84
2021/12/25 12:44:53;;;;;;;2.60;2.40;;;6.00;97.40;;;;;;968998;146;27361;-84
2021/12/25 12:47:18;;;;;;;2.40;2.20;;;6.00;97.60;;;;;;963199;145;27340;-85
2021/12/25 12:49:51;;;;;;;2.13;2.03;;;6.00;97.60;;;;;;962245;148;27246;-83
2021/12/25 12:52:26;;;;;;;2.27;2.07;;;6.00;97.70;;;;;;953087;148;27459;-84
2021/12/25 12:54:52;;;;;;;2.83;2.60;;;6.10;97.60;;;;;;948074;150;27315;-83
2021/12/25 12:57:34;;;;;;;2.27;2.17;;;6.10;97.40;;;;;;960530;148;27331;-84
2021/12/25 13:00:03;;;;;;;2.27;2.10;;;6.10;97.40;;;;;;952438;150;27300;-84
2021/12/25 13:02:30;;;;;;;2.17;2.07;;;6.10;97.30;;;;;;957940;148;27376;-83
2021/12/25 13:04:58;;;;;;;3.03;2.07;;;6.10;97.30;;;;;;947411;147;27345;-83
2021/12/25 13:07:23;;;;;;;2.27;1.97;;;6.10;97.30;;;;;;951685;148;27444;-84
2021/12/25 13:09:59;;;;;;;2.03;1.93;;;6.10;97.30;;;;;;950442;148;27392;-84
2021/12/25 13:12:37;;;;;;;2.40;2.20;;;6.10;97.40;;;;;;949617;148;27336;-84
2021/12/25 13:15:00;;;;;;;2.40;2.20;;;6.10;97.30;;;;;;947275;148;27404;-84
2021/12/25 13:17:29;;;;;;;2.43;2.27;;;6.10;97.20;;;;;;950635;148;27297;-84
2021/12/25 13:19:55;;;;;;;2.50;2.30;;;6.10;97.10;;;;;;957541;148;27447;-84
2021/12/25 13:22:22;;;;;;;2.37;2.20;;;6.10;97.10;;;;;;954723;147;27355;-84
2021/12/25 13:24:54;;;;;;;2.70;2.50;;;6.10;97.10;;;;;;949571;148;27361;-84
2021/12/25 13:27:18;;;;;;;3.07;2.87;;;6.10;97.20;;;;;;948366;150;27412;-84
2021/12/25 13:29:45;;;;;;;3.43;3.13;;;6.10;97.30;;;;;;951733;150;27454;-84
2021/12/25 13:32:11;;;;;;;3.27;3.07;;;6.10;97.10;;;;;;947966;148;27372;-83
2021/12/25 13:34:38;;;;;;;3.83;3.53;;;6.00;97.00;;;;;;950321;148;27325;-83
2021/12/25 13:37:06;;;;;;;3.60;3.30;;;6.00;96.90;;;;;;951010;150;27290;-84
2021/12/25 13:39:33;;;;;;;4.43;4.03;;;6.00;96.90;;;;;;965949;148;27903;-84
2021/12/25 13:41:58;;;;;;;6.57;4.10;;;6.00;96.40;;;;;;916104;153;27343;-84
2021/12/25 13:44:24;;;;;;;3.67;3.37;;;6.00;96.60;;;;;;949366;148;27334;-83
2021/12/25 13:47:06;;;;;;;3.80;3.13;;;5.90;96.50;;;;;;946909;148;27316;-84
2021/12/25 13:49:41;;;;;;;3.23;2.87;;;5.90;96.50;;;;;;942636;148;27326;-84
2021/12/25 13:52:14;;;;;;;4.17;3.60;;;5.80;96.60;;;;;;960029;147;27335;-84
2021/12/25 13:54:43;;;;;;;2.97;2.70;;;5.80;96.60;;;;;;961013;148;27276;-84
2021/12/25 13:57:13;;;;;;;3.13;2.90;;;5.70;96.60;;;;;;958426;145;27328;-84
2021/12/25 13:59:39;;;;;;;3.10;2.90;;;5.70;96.60;;;;;;965883;146;27328;-84
2021/12/25 14:02:09;;;;;;;3.20;2.90;;;5.60;96.70;;;;;;972473;146;27398;-84
2021/12/25 14:04:35;;;;;;;9.83;4.30;;;5.60;96.80;;;;;;980080;146;27360;-84
2021/12/25 14:07:02;;;;;;;3.03;2.73;;;5.60;97.10;;;;;;965389;148;27311;-84